Terminal Aerodrome Forecast
Issued by NWS

Home | Current Version | Previous Version | Text Only | Print | Product List | Glossary On
Versions: 1 2 3 4 5 6 7 8 9 10 11 12 13 14 15 16 17 18 19 20 21 22 23 24 25 26
246
FTUS43 KLOT 211121
TAFDPA
TAF
KDPA 211121Z 2112/2212 18006KT 6SM BR FEW035 OVC250
     FM211300 20007KT P6SM FEW035 OVC250
     FM211600 21008KT P6SM VCSH BKN045 BKN150
     FM211900 21009KT P6SM SCT050 BKN150
     FM220500 20008KT P6SM VCTS BKN050CB
     FM220700 21009KT 4SM TSRA OVC035CB
      TEMPO 2207/2209 2SM TSRA OVC015CB
     FM221000 25008KT 6SM -SHRA OVC020=

USA.gov is the U.S. government's official web portal to all federal, state and local government web resources and services.